createdAt,value
2022-11-10T00:04:15.323Z,14.67
2022-11-10T00:11:35.528Z,14.65
2022-11-10T00:18:55.771Z,14.72
2022-11-10T00:26:17.758Z,14.84
2022-11-10T00:33:38.873Z,14.86
2022-11-10T00:41:00.073Z,14.77
2022-11-10T00:48:20.043Z,14.77
2022-11-10T00:55:40.802Z,14.88
2022-11-10T01:03:02.483Z,14.87
2022-11-10T01:10:22.761Z,14.89
2022-11-10T01:17:42.941Z,15.01
2022-11-10T01:25:03.050Z,15.01
2022-11-10T01:32:23.195Z,15.05
2022-11-10T01:39:43.667Z,15.12
2022-11-10T01:47:03.888Z,15.03
2022-11-10T01:54:25.448Z,15.11
2022-11-10T02:01:48.854Z,15.07
2022-11-10T02:09:08.887Z,15.01
2022-11-10T02:16:28.913Z,15.07
2022-11-10T02:23:50.868Z,14.93
2022-11-10T02:31:11.127Z,14.91
2022-11-10T02:38:31.254Z,14.93
2022-11-10T02:45:51.382Z,14.85
2022-11-10T02:53:11.735Z,14.87
2022-11-10T03:00:31.979Z,14.86
2022-11-10T03:07:56.291Z,14.82
2022-11-10T03:15:16.412Z,14.82
2022-11-10T03:22:37.006Z,14.94
2022-11-10T03:29:57.097Z,14.72
2022-11-10T03:37:17.375Z,14.80
2022-11-10T03:44:37.421Z,14.67
2022-11-10T03:51:57.554Z,14.72
2022-11-10T03:59:17.697Z,14.73
2022-11-10T04:06:56.887Z,14.67
2022-11-10T04:14:35.514Z,14.62
2022-11-10T04:21:55.670Z,14.60
2022-11-10T04:29:19.750Z,14.49
2022-11-10T04:36:41.620Z,14.44
2022-11-10T04:44:02.086Z,14.36
2022-11-10T04:51:24.180Z,14.28
2022-11-10T04:58:44.697Z,14.27
2022-11-10T05:06:05.178Z,14.32
2022-11-10T05:13:25.258Z,14.33
2022-11-10T05:20:45.325Z,14.30
2022-11-10T05:28:05.868Z,14.24
2022-11-10T05:35:25.880Z,14.18
2022-11-10T05:42:47.294Z,14.13
2022-11-10T05:50:08.271Z,14.08
2022-11-10T05:57:28.359Z,13.99
2022-11-10T06:04:48.514Z,13.95
2022-11-10T06:12:08.954Z,13.96
2022-11-10T06:19:29.190Z,13.95
2022-11-10T06:26:49.488Z,13.83
2022-11-10T06:34:09.800Z,13.87
2022-11-10T06:41:30.126Z,13.82
2022-11-10T06:48:50.345Z,13.84
2022-11-10T06:56:10.711Z,13.80
2022-11-10T07:03:31.063Z,13.70
2022-11-10T07:10:52.757Z,13.81
2022-11-10T07:18:13.009Z,13.86
2022-11-10T07:25:36.711Z,13.99
2022-11-10T07:33:06.677Z,13.99
2022-11-10T07:40:27.984Z,14.03
2022-11-10T07:47:48.504Z,14.11
2022-11-10T07:55:08.737Z,14.14
2022-11-10T08:02:28.924Z,14.24
2022-11-10T08:09:50.487Z,14.09
2022-11-10T08:17:10.586Z,14.20
2022-11-10T08:24:30.848Z,14.27
2022-11-10T08:31:51.930Z,14.37
2022-11-10T08:39:13.284Z,14.52
2022-11-10T08:46:37.751Z,14.57
2022-11-10T08:53:57.961Z,14.69
2022-11-10T09:01:18.001Z,14.71
2022-11-10T09:08:38.344Z,14.87
2022-11-10T09:16:02.502Z,15.04
2022-11-10T09:23:24.708Z,15.12
2022-11-10T09:30:48.926Z,15.28
2022-11-10T09:38:09.659Z,15.27
2022-11-10T09:45:36.387Z,15.36
2022-11-10T09:52:59.452Z,15.34
2022-11-10T10:00:19.421Z,15.39
2022-11-10T10:07:51.550Z,15.55
2022-11-10T10:15:14.778Z,15.62
2022-11-10T10:22:56.307Z,15.90
2022-11-10T10:30:18.318Z,15.79
2022-11-10T10:37:58.372Z,15.88
2022-11-10T10:45:18.721Z,16.03
2022-11-10T10:52:38.770Z,16.13
2022-11-10T11:00:31.101Z,16.14
2022-11-10T11:08:01.281Z,15.97
2022-11-10T11:15:21.684Z,16.06
2022-11-10T11:22:52.654Z,16.02
2022-11-10T11:30:21.106Z,16.31
2022-11-10T11:37:41.510Z,16.46
2022-11-10T11:45:29.737Z,16.64
2022-11-10T11:53:03.347Z,16.75
2022-11-10T12:00:23.487Z,16.70
2022-11-10T12:07:50.146Z,16.75
2022-11-10T12:15:33.199Z,16.80
2022-11-10T12:23:08.988Z,16.83
2022-11-10T12:30:29.155Z,16.77
2022-11-10T12:38:16.280Z,16.86
2022-11-10T12:45:42.619Z,16.96
2022-11-10T12:53:05.991Z,17.03
2022-11-10T13:00:31.699Z,16.87
2022-11-10T13:08:03.665Z,16.94
2022-11-10T13:15:35.713Z,17.07
2022-11-10T13:22:55.721Z,17.20
2022-11-10T13:30:39.392Z,17.28
2022-11-10T13:37:59.651Z,17.29
2022-11-10T13:45:32.269Z,17.31
2022-11-10T13:52:56.540Z,17.13
2022-11-10T14:00:18.044Z,17.16
2022-11-10T14:07:42.506Z,17.09
2022-11-10T14:15:06.893Z,17.09
2022-11-10T14:22:35.156Z,17.01
2022-11-10T14:30:06.250Z,16.94
2022-11-10T14:37:28.138Z,16.68
2022-11-10T14:44:48.620Z,16.65
2022-11-10T14:52:09.075Z,16.59
2022-11-10T14:59:29.165Z,16.71
2022-11-10T15:06:49.328Z,16.57
2022-11-10T15:14:46.423Z,16.54
2022-11-10T15:22:12.449Z,16.49
2022-11-10T15:29:32.650Z,16.33
2022-11-10T15:37:09.720Z,16.35
2022-11-10T15:44:29.656Z,16.25
2022-11-10T15:51:51.107Z,16.21
2022-11-10T15:59:11.576Z,16.22
2022-11-10T16:06:32.344Z,16.18
2022-11-10T16:13:52.085Z,16.10
2022-11-10T16:21:22.637Z,16.04
2022-11-10T16:28:44.189Z,15.94
2022-11-10T16:36:04.533Z,15.91
2022-11-10T16:43:24.895Z,15.84
2022-11-10T16:50:45.780Z,15.76
2022-11-10T16:58:05.942Z,15.71
2022-11-10T17:05:26.118Z,15.61
2022-11-10T17:12:46.576Z,15.52
2022-11-10T17:20:07.294Z,15.42
2022-11-10T17:27:27.886Z,15.38
2022-11-10T17:34:48.060Z,15.33
2022-11-10T17:42:12.769Z,15.35
2022-11-10T17:49:33.071Z,15.39
2022-11-10T17:56:53.281Z,15.47
2022-11-10T18:04:13.806Z,15.46
2022-11-10T18:11:34.083Z,15.44
2022-11-10T18:18:54.242Z,15.55
2022-11-10T18:26:14.518Z,15.61
2022-11-10T18:33:34.903Z,15.56
2022-11-10T18:40:54.791Z,15.56
2022-11-10T18:48:14.768Z,15.53
2022-11-10T18:55:34.891Z,15.51
2022-11-10T19:02:55.934Z,15.56
2022-11-10T19:10:16.129Z,15.59
2022-11-10T19:17:36.376Z,15.53
2022-11-10T19:25:12.062Z,15.45
2022-11-10T19:32:32.257Z,15.40
2022-11-10T19:39:52.680Z,15.30
2022-11-10T19:47:12.935Z,15.34
2022-11-10T19:54:33.169Z,15.28
2022-11-10T20:01:53.455Z,15.23
2022-11-10T20:09:13.940Z,15.28
2022-11-10T20:16:34.075Z,15.28
2022-11-10T20:23:54.910Z,15.15
2022-11-10T20:31:20.201Z,15.12
2022-11-10T20:38:40.597Z,15.18
2022-11-10T20:46:00.833Z,15.17
2022-11-10T20:53:21.209Z,15.04
2022-11-10T21:00:43.352Z,15.11
2022-11-10T21:08:03.601Z,15.08
2022-11-10T21:15:23.773Z,14.98
2022-11-10T21:22:43.697Z,15.13
2022-11-10T21:30:05.476Z,15.01
2022-11-10T21:37:26.930Z,15.00
2022-11-10T21:44:47.395Z,15.03
2022-11-10T21:52:07.601Z,14.87
2022-11-10T21:59:27.802Z,14.72
2022-11-10T22:07:06.647Z,14.71
2022-11-10T22:14:45.445Z,14.53
2022-11-10T22:22:06.004Z,14.52
2022-11-10T22:29:31.159Z,14.52
2022-11-10T22:36:53.540Z,14.45
2022-11-10T22:44:14.557Z,14.33
2022-11-10T22:51:34.705Z,14.24
2022-11-10T22:58:59.652Z,14.11
2022-11-10T23:06:20.726Z,14.10
2022-11-10T23:13:41.014Z,13.91
2022-11-10T23:21:05.232Z,13.90
2022-11-10T23:28:29.459Z,13.79
2022-11-10T23:35:49.740Z,13.62
2022-11-10T23:43:09.993Z,13.63
2022-11-10T23:50:30.304Z,13.49
2022-11-10T23:57:50.673Z,13.49
